Private Wetterstation Sandau
Wetterdaten: Donnerstag, 09.08.2012
Datum Zeit Temp. A. Feuchte A. Luftdruck Regen Wind Richtung Richtung Taupunkt Windchill
09.08.2012 00:01 15,4 C 82 % 1022,9 hPa 0,0 l/m 2,5 km/h (1 Bft) W-NW 292 12,3 C 15,4 C
09.08.2012 00:06 15,3 C 82 % 1023,0 hPa 0,0 l/m 3,2 km/h (1 Bft) W-NW 292 12,2 C 15,3 C
09.08.2012 00:11 15,2 C 82 % 1023,2 hPa 0,0 l/m 1,4 km/h (1 Bft) W-NW 292 12,1 C 15,2 C
09.08.2012 00:16 15,1 C 82 % 1023,2 hPa 0,0 l/m 3,6 km/h (1 Bft) W 270 12,0 C 15,1 C
09.08.2012 00:21 15,1 C 83 % 1023,2 hPa 0,0 l/m 2,9 km/h (1 Bft) W-SW 247 12,2 C 15,1 C
09.08.2012 00:26 14,9 C 83 % 1023,2 hPa 0,0 l/m 2,2 km/h (1 Bft) W-SW 247 12,0 C 14,9 C
09.08.2012 00:31 14,9 C 83 % 1023,2 hPa 0,0 l/m 2,9 km/h (1 Bft) W-NW 292 12,0 C 14,9 C
09.08.2012 00:36 14,9 C 83 % 1023,2 hPa 0,0 l/m 5,8 km/h (2 Bft) W-NW 292 12,0 C 14,9 C
09.08.2012 00:41 14,9 C 83 % 1023,3 hPa 0,0 l/m 5,0 km/h (1 Bft) W 270 12,0 C 14,9 C
09.08.2012 00:46 14,9 C 84 % 1023,3 hPa 0,0 l/m 0,0 km/h (0 Bft) NW 315 12,2 C 14,9 C
09.08.2012 00:51 14,9 C 84 % 1023,2 hPa 0,0 l/m 4,0 km/h (1 Bft) W-NW 292 12,2 C 14,9 C
09.08.2012 00:56 14,9 C 84 % 1023,3 hPa 0,0 l/m 3,2 km/h (1 Bft) W-NW 292 12,2 C 14,9 C
09.08.2012 01:01 14,8 C 84 % 1023,3 hPa 0,0 l/m 4,7 km/h (1 Bft) NW 315 12,1 C 14,8 C
09.08.2012 01:06 14,7 C 84 % 1023,2 hPa 0,0 l/m 1,1 km/h (1 Bft) W-NW 292 12,0 C 14,7 C
09.08.2012 01:11 14,6 C 84 % 1023,2 hPa 0,0 l/m 1,4 km/h (1 Bft) N-NW 337 11,9 C 14,6 C
09.08.2012 01:16 14,6 C 84 % 1023,2 hPa 0,0 l/m 3,2 km/h (1 Bft) W-NW 292 11,9 C 14,6 C
09.08.2012 01:21 14,6 C 84 % 1023,1 hPa 0,0 l/m 0,0 km/h (0 Bft) W-NW 292 11,9 C 14,6 C
09.08.2012 01:26 14,5 C 85 % 1023,1 hPa 0,0 l/m 4,3 km/h (1 Bft) W-NW 292 12,0 C 14,5 C
09.08.2012 01:31 14,5 C 85 % 1023,0 hPa 0,0 l/m 0,0 km/h (0 Bft) W-NW 292 12,0 C 14,5 C
09.08.2012 01:36 14,4 C 85 % 1023,0 hPa 0,0 l/m 4,3 km/h (1 Bft) NW 315 11,9 C 14,4 C
09.08.2012 01:41 14,4 C 85 % 1022,9 hPa 0,0 l/m 0,0 km/h (0 Bft) W-NW 292 11,9 C 14,4 C
09.08.2012 01:46 14,4 C 85 % 1023,0 hPa 0,0 l/m 0,0 km/h (0 Bft) W-NW 292 11,9 C 14,4 C
09.08.2012 01:51 14,4 C 86 % 1022,9 hPa 0,0 l/m 1,1 km/h (1 Bft) W-NW 292 12,1 C 14,4 C
09.08.2012 01:56 14,4 C 86 % 1022,9 hPa 0,0 l/m 0,0 km/h (0 Bft) W-NW 292 12,1 C 14,4 C
09.08.2012 02:01 14,4 C 85 % 1023,0 hPa 0,0 l/m 1,4 km/h (1 Bft) W-NW 292 11,9 C 14,4 C
09.08.2012 02:06 14,3 C 85 % 1023,0 hPa 0,0 l/m 0,0 km/h (0 Bft) W-NW 292 11,8 C 14,3 C
09.08.2012 02:11 14,4 C 86 % 1022,9 hPa 0,0 l/m 2,2 km/h (1 Bft) NW 315 12,1 C 14,4 C
09.08.2012 02:16 14,3 C 86 % 1022,8 hPa 0,0 l/m 0,0 km/h (0 Bft) N-NO 22 12,0 C 14,3 C
09.08.2012 02:21 14,3 C 86 % 1022,9 hPa 0,0 l/m 0,0 km/h (0 Bft) NW 315 12,0 C 14,3 C
09.08.2012 02:26 14,3 C 86 % 1022,9 hPa 0,0 l/m 3,2 km/h (1 Bft) W-NW 292 12,0 C 14,3 C
09.08.2012 02:31 14,3 C 86 % 1022,9 hPa 0,0 l/m 3,2 km/h (1 Bft) W-NW 292 12,0 C 14,3 C
09.08.2012 02:36 14,3 C 86 % 1022,9 hPa 0,0 l/m 2,9 km/h (1 Bft) W-NW 292 12,0 C 14,3 C
09.08.2012 02:41 14,3 C 86 % 1023,0 hPa 0,0 l/m 0,0 km/h (0 Bft) NW 315 12,0 C 14,3 C
09.08.2012 02:46 14,4 C 86 % 1022,9 hPa 0,0 l/m 0,0 km/h (0 Bft) W 270 12,1 C 14,4 C
09.08.2012 02:51 14,4 C 86 % 1022,8 hPa 0,0 l/m 4,3 km/h (1 Bft) W-NW 292 12,1 C 14,4 C
09.08.2012 02:56 14,4 C 86 % 1022,8 hPa 0,0 l/m 1,1 km/h (1 Bft) W 270 12,1 C 14,4 C
09.08.2012 03:01 14,4 C 86 % 1022,9 hPa 0,0 l/m 5,4 km/h (1 Bft) W-NW 292 12,1 C 14,4 C
09.08.2012 03:06 14,4 C 86 % 1022,9 hPa 0,0 l/m 0,0 km/h (0 Bft) W 270 12,1 C 14,4 C
09.08.2012 03:11 14,4 C 86 % 1023,0 hPa 0,0 l/m 2,5 km/h (1 Bft) W-NW 292 12,1 C 14,4 C
09.08.2012 03:16 14,3 C 86 % 1023,0 hPa 0,0 l/m 1,4 km/h (1 Bft) W 270 12,0 C 14,3 C
09.08.2012 03:21 14,3 C 86 % 1023,0 hPa 0,0 l/m 3,6 km/h (1 Bft) W 270 12,0 C 14,3 C
09.08.2012 03:26 14,2 C 86 % 1023,2 hPa 0,0 l/m 1,8 km/h (1 Bft) W-NW 292 11,9 C 14,2 C
09.08.2012 03:31 14,1 C 86 % 1023,1 hPa 0,0 l/m 0,0 km/h (0 Bft) W 270 11,8 C 14,1 C
09.08.2012 03:36 14,1 C 86 % 1023,2 hPa 0,0 l/m 3,6 km/h (1 Bft) W 270 11,8 C 14,1 C
09.08.2012 03:41 14,0 C 87 % 1023,2 hPa 0,0 l/m 4,0 km/h (1 Bft) W 270 11,9 C 14,0 C
09.08.2012 03:46 13,9 C 87 % 1023,2 hPa 0,0 l/m 1,8 km/h (1 Bft) W-NW 292 11,8 C 13,9 C
09.08.2012 03:51 13,9 C 87 % 1023,2 hPa 0,0 l/m 0,0 km/h (0 Bft) W-NW 292 11,8 C 13,9 C
09.08.2012 03:56 13,9 C 87 % 1023,3 hPa 0,0 l/m 2,5 km/h (1 Bft) W 270 11,8 C 13,9 C
09.08.2012 04:01 13,9 C 87 % 1023,2 hPa 0,0 l/m 5,8 km/h (2 Bft) NW 315 11,8 C 13,9 C
09.08.2012 04:06 13,9 C 88 % 1023,3 hPa 0,0 l/m 0,0 km/h (0 Bft) W 270 11,9 C 13,9 C
09.08.2012 04:11 13,9 C 88 % 1023,3 hPa 0,0 l/m 5,8 km/h (2 Bft) NW 315 11,9 C 13,9 C
09.08.2012 04:16 13,8 C 88 % 1023,2 hPa 0,0 l/m 4,7 km/h (1 Bft) W-NW 292 11,8 C 13,8 C
09.08.2012 04:21 13,8 C 88 % 1023,2 hPa 0,0 l/m 3,2 km/h (1 Bft) W-NW 292 11,8 C 13,8 C
09.08.2012 04:26 13,8 C 88 % 1023,1 hPa 0,0 l/m 2,5 km/h (1 Bft) NW 315 11,8 C 13,8 C
09.08.2012 04:31 13,8 C 88 % 1023,1 hPa 0,0 l/m 0,0 km/h (0 Bft) W-NW 292 11,8 C 13,8 C
09.08.2012 04:36 13,7 C 88 % 1023,1 hPa 0,0 l/m 0,0 km/h (0 Bft) NW 315 11,7 C 13,7 C
09.08.2012 04:41 13,6 C 88 % 1023,3 hPa 0,0 l/m 0,0 km/h (0 Bft) NW 315 11,6 C 13,6 C
09.08.2012 04:46 13,6 C 88 % 1023,2 hPa 0,0 l/m 2,9 km/h (1 Bft) NW 315 11,6 C 13,6 C
09.08.2012 04:51 13,6 C 88 % 1023,2 hPa 0,0 l/m 0,0 km/h (0 Bft) NW 315 11,6 C 13,6 C
09.08.2012 04:56 13,6 C 88 % 1023,1 hPa 0,0 l/m 0,0 km/h (0 Bft) NW 315 11,6 C 13,6 C
09.08.2012 05:01 13,6 C 88 % 1023,2 hPa 0,0 l/m 0,0 km/h (0 Bft) NW 315 11,6 C 13,6 C
09.08.2012 05:06 13,6 C 88 % 1023,2 hPa 0,0 l/m 1,4 km/h (1 Bft) NW 315 11,6 C 13,6 C
09.08.2012 05:11 13,6 C 88 % 1023,3 hPa 0,0 l/m 2,2 km/h (1 Bft) NW 315 11,6 C 13,6 C
09.08.2012 05:16 13,6 C 88 % 1023,4 hPa 0,0 l/m 3,2 km/h (1 Bft) NW 315 11,6 C 13,6 C
09.08.2012 05:21 13,5 C 88 % 1023,3 hPa 0,0 l/m 0,0 km/h (0 Bft) NW 315 11,6 C 13,5 C
09.08.2012 05:26 13,5 C 88 % 1023,2 hPa 0,0 l/m 0,0 km/h (0 Bft) NW 315 11,6 C 13,5 C
09.08.2012 05:31 13,5 C 88 % 1023,3 hPa 0,0 l/m 0,0 km/h (0 Bft) NW 315 11,6 C 13,5 C
09.08.2012 05:36 13,6 C 88 % 1023,3 hPa 0,0 l/m 0,0 km/h (0 Bft) NW 315 11,6 C 13,6 C
09.08.2012 05:41 13,5 C 88 % 1023,3 hPa 0,0 l/m 0,0 km/h (0 Bft) NW 315 11,6 C 13,5 C
09.08.2012 05:46 13,5 C 88 % 1023,5 hPa 0,0 l/m 0,0 km/h (0 Bft) NW 315 11,6 C 13,5 C
09.08.2012 05:51 13,5 C 88 % 1023,6 hPa 0,0 l/m 2,9 km/h (1 Bft) NW 315 11,6 C 13,5 C
09.08.2012 05:56 13,5 C 88 % 1023,6 hPa 0,0 l/m 0,0 km/h (0 Bft) NW 315 11,6 C 13,5 C
09.08.2012 06:01 13,5 C 88 % 1023,5 hPa 0,0 l/m 2,5 km/h (1 Bft) NW 315 11,6 C 13,5 C
09.08.2012 06:06 13,5 C 88 % 1023,6 hPa 0,0 l/m 1,8 km/h (1 Bft) NW 315 11,6 C 13,5 C
09.08.2012 06:11 13,5 C 88 % 1023,5 hPa 0,0 l/m 0,0 km/h (0 Bft) NW 315 11,6 C 13,5 C
09.08.2012 06:16 13,5 C 88 % 1023,5 hPa 0,0 l/m 0,0 km/h (0 Bft) W-NW 292 11,6 C 13,5 C
09.08.2012 06:21 13,6 C 88 % 1023,5 hPa 0,0 l/m 0,0 km/h (0 Bft) NW 315 11,6 C 13,6 C
09.08.2012 06:26 13,6 C 88 % 1023,4 hPa 0,0 l/m 0,0 km/h (0 Bft) NW 315 11,6 C 13,6 C
09.08.2012 06:31 13,8 C 89 % 1023,4 hPa 0,0 l/m 0,0 km/h (0 Bft) NW 315 12,0 C 13,8 C
09.08.2012 06:36 13,9 C 89 % 1023,5 hPa 0,0 l/m 0,0 km/h (0 Bft) NW 315 12,1 C 13,9 C
09.08.2012 06:41 14,2 C 89 % 1023,6 hPa 0,0 l/m 4,0 km/h (1 Bft) NW 315 12,4 C 14,2 C
09.08.2012 06:46 14,4 C 89 % 1023,6 hPa 0,0 l/m 4,3 km/h (1 Bft) NW 315 12,6 C 14,4 C
09.08.2012 06:51 14,8 C 89 % 1023,7 hPa 0,0 l/m 2,5 km/h (1 Bft) W-NW 292 13,0 C 14,8 C
09.08.2012 06:56 14,9 C 88 % 1023,6 hPa 0,0 l/m 1,1 km/h (1 Bft) W 270 12,9 C 14,9 C
09.08.2012 07:01 14,9 C 87 % 1023,6 hPa 0,0 l/m 6,5 km/h (2 Bft) W 270 12,8 C 14,9 C
09.08.2012 07:06 14,9 C 87 % 1023,6 hPa 0,0 l/m 0,0 km/h (0 Bft) W 270 12,8 C 14,9 C
09.08.2012 07:11 14,9 C 87 % 1023,6 hPa 0,0 l/m 6,5 km/h (2 Bft) W-SW 247 12,8 C 14,9 C
09.08.2012 07:16 14,9 C 87 % 1023,6 hPa 0,0 l/m 0,0 km/h (0 Bft) W 270 12,8 C 14,9 C
09.08.2012 07:21 14,9 C 87 % 1023,6 hPa 0,0 l/m 1,1 km/h (1 Bft) W 270 12,8 C 14,9 C
09.08.2012 07:26 14,9 C 87 % 1023,7 hPa 0,0 l/m 3,6 km/h (1 Bft) SW 225 12,8 C 14,9 C
09.08.2012 07:31 14,9 C 87 % 1023,6 hPa 0,0 l/m 1,4 km/h (1 Bft) W 270 12,8 C 14,9 C
09.08.2012 07:36 14,9 C 87 % 1023,7 hPa 0,0 l/m 3,6 km/h (1 Bft) W-NW 292 12,8 C 14,9 C
09.08.2012 07:41 14,9 C 86 % 1023,7 hPa 0,0 l/m 1,1 km/h (1 Bft) W-NW 292 12,6 C 14,9 C
09.08.2012 07:46 14,9 C 87 % 1023,9 hPa 0,0 l/m 0,0 km/h (0 Bft) N-NW 337 12,8 C 14,9 C
09.08.2012 07:51 14,9 C 87 % 1023,8 hPa 0,0 l/m 1,1 km/h (1 Bft) NW 315 12,8 C 14,9 C
09.08.2012 07:56 14,9 C 87 % 1023,9 hPa 0,0 l/m 2,5 km/h (1 Bft) W-NW 292 12,8 C 14,9 C
09.08.2012 08:01 14,9 C 87 % 1023,9 hPa 0,0 l/m 2,5 km/h (1 Bft) W-SW 247 12,8 C 14,9 C
09.08.2012 08:06 14,9 C 87 % 1023,8 hPa 0,0 l/m 3,2 km/h (1 Bft) W-SW 247 12,8 C 14,9 C
09.08.2012 08:11 14,9 C 86 % 1023,9 hPa 0,0 l/m 3,2 km/h (1 Bft) W 270 12,6 C 14,9 C
09.08.2012 08:16 14,9 C 86 % 1024,0 hPa 0,0 l/m 2,2 km/h (1 Bft) W-NW 292 12,6 C 14,9 C
09.08.2012 08:21 14,9 C 86 % 1024,0 hPa 0,0 l/m 0,0 km/h (0 Bft) W-NW 292 12,6 C 14,9 C
09.08.2012 08:26 14,9 C 86 % 1024,0 hPa 0,0 l/m 0,0 km/h (0 Bft) W 270 12,6 C 14,9 C
09.08.2012 08:31 14,9 C 86 % 1024,0 hPa 0,0 l/m 2,9 km/h (1 Bft) W-SW 247 12,6 C 14,9 C
09.08.2012 08:36 15,1 C 86 % 1024,1 hPa 0,0 l/m 3,6 km/h (1 Bft) W-SW 247 12,8 C 15,1 C
09.08.2012 08:41 15,1 C 86 % 1024,1 hPa 0,0 l/m 2,5 km/h (1 Bft) W-NW 292 12,8 C 15,1 C
09.08.2012 08:46 15,1 C 86 % 1024,1 hPa 0,0 l/m 0,0 km/h (0 Bft) W-NW 292 12,8 C 15,1 C
09.08.2012 08:51 15,2 C 85 % 1024,1 hPa 0,0 l/m 4,0 km/h (1 Bft) W-SW 247 12,7 C 15,2 C
09.08.2012 08:56 15,3 C 85 % 1024,2 hPa 0,0 l/m 0,0 km/h (0 Bft) W 270 12,8 C 15,3 C
09.08.2012 09:01 15,3 C 85 % 1024,2 hPa 0,0 l/m 3,2 km/h (1 Bft) W 270 12,8 C 15,3 C
09.08.2012 09:06 15,3 C 85 % 1024,3 hPa 0,0 l/m 4,0 km/h (1 Bft) W-SW 247 12,8 C 15,3 C
09.08.2012 09:11 15,3 C 85 % 1024,3 hPa 0,0 l/m 0,0 km/h (0 Bft) W-NW 292 12,8 C 15,3 C
09.08.2012 09:16 15,4 C 85 % 1024,4 hPa 0,0 l/m 0,0 km/h (0 Bft) NW 315 12,9 C 15,4 C
09.08.2012 09:21 15,4 C 85 % 1024,3 hPa 0,0 l/m 5,0 km/h (1 Bft) W-NW 292 12,9 C 15,4 C
09.08.2012 09:26 15,4 C 85 % 1024,4 hPa 0,0 l/m 4,0 km/h (1 Bft) W-NW 292 12,9 C 15,4 C
09.08.2012 09:31 15,4 C 84 % 1024,4 hPa 0,0 l/m 6,1 km/h (2 Bft) W-NW 292 12,7 C 15,4 C
09.08.2012 09:36 15,4 C 84 % 1024,4 hPa 0,0 l/m 5,4 km/h (1 Bft) NW 315 12,7 C 15,4 C
09.08.2012 09:41 15,4 C 84 % 1024,5 hPa 0,0 l/m 3,6 km/h (1 Bft) W 270 12,7 C 15,4 C
09.08.2012 09:46 15,4 C 84 % 1024,5 hPa 0,0 l/m 3,2 km/h (1 Bft) W-NW 292 12,7 C 15,4 C
09.08.2012 09:51 15,4 C 84 % 1024,6 hPa 0,0 l/m 2,2 km/h (1 Bft) W-NW 292 12,7 C 15,4 C
09.08.2012 09:56 15,4 C 84 % 1024,6 hPa 0,0 l/m 2,2 km/h (1 Bft) W-NW 292 12,7 C 15,4 C
09.08.2012 10:01 15,4 C 84 % 1024,7 hPa 0,0 l/m 1,1 km/h (1 Bft) W-NW 292 12,7 C 15,4 C
09.08.2012 10:06 15,5 C 84 % 1024,7 hPa 0,0 l/m 5,4 km/h (1 Bft) W-SW 247 12,8 C 15,5 C
09.08.2012 10:11 15,6 C 84 % 1024,8 hPa 0,0 l/m 1,8 km/h (1 Bft) W-SW 247 12,9 C 15,6 C
09.08.2012 10:16 15,8 C 84 % 1024,7 hPa 0,0 l/m 0,0 km/h (0 Bft) W-SW 247 13,1 C 15,8 C
09.08.2012 10:21 15,8 C 83 % 1024,7 hPa 0,0 l/m 3,6 km/h (1 Bft) W-SW 247 12,9 C 15,8 C
09.08.2012 10:26 15,8 C 83 % 1024,8 hPa 0,0 l/m 0,0 km/h (0 Bft) W 270 12,9 C 15,8 C
09.08.2012 10:31 15,9 C 82 % 1024,8 hPa 0,0 l/m 4,0 km/h (1 Bft) W-NW 292 12,8 C 15,9 C
09.08.2012 10:36 15,9 C 82 % 1024,8 hPa 0,0 l/m 4,7 km/h (1 Bft) W-NW 292 12,8 C 15,9 C
09.08.2012 10:41 15,9 C 82 % 1024,9 hPa 0,0 l/m 3,2 km/h (1 Bft) W-NW 292 12,8 C 15,9 C
09.08.2012 10:46 16,1 C 82 % 1024,9 hPa 0,0 l/m 6,1 km/h (2 Bft) NW 315 13,0 C 16,1 C
09.08.2012 10:51 16,1 C 81 % 1024,9 hPa 0,0 l/m 3,6 km/h (1 Bft) W 270 12,8 C 16,1 C
09.08.2012 10:56 16,3 C 81 % 1024,8 hPa 0,0 l/m 3,2 km/h (1 Bft) W-NW 292 13,0 C 16,3 C
09.08.2012 11:01 16,6 C 80 % 1024,8 hPa 0,0 l/m 6,5 km/h (2 Bft) W-SW 247 13,1 C 16,6 C
09.08.2012 11:06 16,9 C 80 % 1024,8 hPa 0,0 l/m 5,0 km/h (1 Bft) NW 315 13,4 C 16,9 C
09.08.2012 11:11 17,2 C 78 % 1024,8 hPa 0,0 l/m 4,0 km/h (1 Bft) W-SW 247 13,3 C 17,2 C
09.08.2012 11:16 17,5 C 76 % 1024,6 hPa 0,0 l/m 5,4 km/h (1 Bft) W-SW 247 13,2 C 17,5 C
09.08.2012 11:21 17,7 C 74 % 1024,7 hPa 0,0 l/m 4,0 km/h (1 Bft) W 270 13,0 C 17,7 C
09.08.2012 11:26 17,9 C 73 % 1024,7 hPa 0,0 l/m 3,2 km/h (1 Bft) W-NW 292 13,0 C 17,9 C
09.08.2012 11:31 18,0 C 72 % 1024,7 hPa 0,0 l/m 4,3 km/h (1 Bft) NW 315 12,9 C 18,0 C
09.08.2012 11:36 18,4 C 71 % 1024,7 hPa 0,0 l/m 4,7 km/h (1 Bft) N 360 13,0 C 18,4 C
09.08.2012 11:41 18,9 C 67 % 1024,6 hPa 0,0 l/m 2,5 km/h (1 Bft) N 360 12,6 C 18,9 C
09.08.2012 11:46 19,1 C 67 % 1024,7 hPa 0,0 l/m 8,3 km/h (2 Bft) W-NW 292 12,8 C 19,1 C
09.08.2012 11:51 19,4 C 67 % 1024,7 hPa 0,0 l/m 4,0 km/h (1 Bft) W 270 13,1 C 19,4 C
09.08.2012 11:56 19,6 C 66 % 1024,9 hPa 0,0 l/m 6,1 km/h (2 Bft) W-NW 292 13,1 C 19,6 C
09.08.2012 12:01 19,9 C 65 % 1024,9 hPa 0,0 l/m 3,6 km/h (1 Bft) NW 315 13,1 C 19,9 C
09.08.2012 12:06 20,2 C 64 % 1024,8 hPa 0,0 l/m 4,0 km/h (1 Bft) N 360 13,2 C 20,2 C
09.08.2012 12:11 20,4 C 62 % 1024,7 hPa 0,0 l/m 4,7 km/h (1 Bft) W 270 12,9 C 20,4 C
09.08.2012 12:16 20,4 C 62 % 1024,7 hPa 0,0 l/m 14,8 km/h (3 Bft) W-NW 292 12,9 C 20,4 C
09.08.2012 12:21 20,4 C 61 % 1024,6 hPa 0,0 l/m 6,1 km/h (2 Bft) W-SW 247 12,6 C 20,4 C
09.08.2012 12:26 20,4 C 60 % 1024,7 hPa 0,0 l/m 9,4 km/h (2 Bft) NW 315 12,4 C 20,4 C
09.08.2012 12:31 20,3 C 59 % 1024,7 hPa 0,0 l/m 6,1 km/h (2 Bft) W-NW 292 12,0 C 20,3 C
09.08.2012 12:36 20,1 C 59 % 1024,7 hPa 0,0 l/m 6,8 km/h (2 Bft) W 270 11,8 C 20,1 C
09.08.2012 12:41 20,1 C 60 % 1024,6 hPa 0,0 l/m 4,7 km/h (1 Bft) W-NW 292 12,1 C 20,1 C
09.08.2012 12:46 20,1 C 59 % 1024,5 hPa 0,0 l/m 5,4 km/h (1 Bft) W 270 11,8 C 20,1 C
09.08.2012 12:51 19,9 C 60 % 1024,5 hPa 0,0 l/m 14,4 km/h (3 Bft) W-NW 292 11,9 C 19,9 C
09.08.2012 12:56 20,1 C 60 % 1024,5 hPa 0,0 l/m 8,3 km/h (2 Bft) N-NW 337 12,1 C 20,1 C
09.08.2012 13:01 20,2 C 59 % 1024,4 hPa 0,0 l/m 10,1 km/h (2 Bft) W 270 11,9 C 20,2 C
09.08.2012 13:06 20,5 C 60 % 1024,5 hPa 0,0 l/m 10,4 km/h (2 Bft) NW 315 12,5 C 20,5 C
09.08.2012 13:11 21,0 C 58 % 1024,3 hPa 0,0 l/m 3,6 km/h (1 Bft) W 270 12,4 C 21,0 C
09.08.2012 13:16 21,4 C 56 % 1024,4 hPa 0,0 l/m 7,9 km/h (2 Bft) N-NO 22 12,3 C 21,4 C
09.08.2012 13:21 21,3 C 55 % 1024,3 hPa 0,0 l/m 3,6 km/h (1 Bft) N 360 11,9 C 21,3 C
09.08.2012 13:26 21,3 C 54 % 1024,2 hPa 0,0 l/m 4,0 km/h (1 Bft) N-NO 22 11,6 C 21,3 C
09.08.2012 13:31 20,9 C 54 % 1024,2 hPa 0,0 l/m 7,6 km/h (2 Bft) N-NO 22 11,2 C 20,9 C
09.08.2012 13:36 20,6 C 56 % 1024,2 hPa 0,0 l/m 10,1 km/h (2 Bft) W-SW 247 11,5 C 20,6 C
09.08.2012 13:41 20,4 C 57 % 1024,3 hPa 0,0 l/m 8,3 km/h (2 Bft) N 360 11,6 C 20,4 C
09.08.2012 13:46 19,7 C 58 % 1024,2 hPa 0,0 l/m 11,9 km/h (2 Bft) N-NW 337 11,2 C 19,7 C
09.08.2012 13:51 19,3 C 60 % 1024,3 hPa 0,0 l/m 9,4 km/h (2 Bft) N 360 11,3 C 19,3 C
09.08.2012 13:56 19,2 C 61 % 1024,3 hPa 0,0 l/m 12,2 km/h (2 Bft) N 360 11,5 C 19,2 C
09.08.2012 14:01 19,3 C 61 % 1024,3 hPa 0,0 l/m 7,9 km/h (2 Bft) N-NO 22 11,6 C 19,3 C
09.08.2012 14:06 19,3 C 59 % 1024,3 hPa 0,0 l/m 9,7 km/h (2 Bft) NW 315 11,1 C 19,3 C
09.08.2012 14:11 19,2 C 60 % 1024,4 hPa 0,0 l/m 3,6 km/h (1 Bft) N-NW 337 11,2 C 19,2 C
09.08.2012 14:16 19,3 C 61 % 1024,4 hPa 0,0 l/m 6,1 km/h (2 Bft) N 360 11,6 C 19,3 C
09.08.2012 14:21 19,4 C 61 % 1024,3 hPa 0,0 l/m 2,9 km/h (1 Bft) W-NW 292 11,7 C 19,4 C
09.08.2012 14:26 20,3 C 59 % 1024,3 hPa 0,0 l/m 2,5 km/h (1 Bft) NW 315 12,0 C 20,3 C
09.08.2012 14:31 20,4 C 56 % 1024,4 hPa 0,0 l/m 13,7 km/h (3 Bft) N 360 11,3 C 20,4 C
09.08.2012 14:36 19,6 C 58 % 1024,4 hPa 0,0 l/m 3,6 km/h (1 Bft) NO 45 11,1 C 19,6 C
09.08.2012 14:41 19,2 C 60 % 1024,4 hPa 0,0 l/m 9,4 km/h (2 Bft) N-NO 22 11,2 C 19,2 C
09.08.2012 14:46 19,0 C 61 % 1024,5 hPa 0,0 l/m 6,5 km/h (2 Bft) N-NW 337 11,3 C 19,0 C
09.08.2012 14:51 19,0 C 61 % 1024,5 hPa 0,0 l/m 7,2 km/h (2 Bft) N 360 11,3 C 19,0 C
09.08.2012 14:56 18,9 C 60 % 1024,5 hPa 0,0 l/m 4,7 km/h (1 Bft) N-NO 22 11,0 C 18,9 C
09.08.2012 15:01 18,9 C 60 % 1024,5 hPa 0,0 l/m 3,2 km/h (1 Bft) N-NW 337 11,0 C 18,9 C
09.08.2012 15:06 19,0 C 60 % 1024,5 hPa 0,0 l/m 7,9 km/h (2 Bft) N 360 11,1 C 19,0 C
09.08.2012 15:11 18,9 C 60 % 1024,4 hPa 0,0 l/m 4,0 km/h (1 Bft) NO 45 11,0 C 18,9 C
09.08.2012 15:16 18,9 C 61 % 1024,4 hPa 0,0 l/m 5,8 km/h (2 Bft) NO 45 11,2 C 18,9 C
09.08.2012 15:21 18,9 C 61 % 1024,5 hPa 0,0 l/m 6,8 km/h (2 Bft) N 360 11,2 C 18,9 C
09.08.2012 15:26 18,7 C 60 % 1024,5 hPa 0,0 l/m 4,7 km/h (1 Bft) N-NW 337 10,8 C 18,7 C
09.08.2012 15:31 18,7 C 59 % 1024,5 hPa 0,0 l/m 12,2 km/h (2 Bft) N-NW 337 10,5 C 18,7 C
09.08.2012 15:36 18,9 C 58 % 1024,4 hPa 0,0 l/m 5,8 km/h (2 Bft) N 360 10,5 C 18,9 C
09.08.2012 15:41 18,9 C 58 % 1024,4 hPa 0,0 l/m 11,2 km/h (2 Bft) NW 315 10,5 C 18,9 C
09.08.2012 15:46 19,1 C 57 % 1024,4 hPa 0,0 l/m 3,2 km/h (1 Bft) W-NW 292 10,4 C 19,1 C
09.08.2012 15:51 19,0 C 58 % 1024,4 hPa 0,0 l/m 8,3 km/h (2 Bft) N-NO 22 10,5 C 19,0 C
09.08.2012 15:56 19,1 C 58 % 1024,4 hPa 0,0 l/m 9,7 km/h (2 Bft) N-NO 22 10,6 C 19,1 C
09.08.2012 16:01 19,3 C 58 % 1024,3 hPa 0,0 l/m 10,1 km/h (2 Bft) NW 315 10,8 C 19,3 C
09.08.2012 16:06 19,5 C 57 % 1024,4 hPa 0,0 l/m 4,7 km/h (1 Bft) W 270 10,8 C 19,5 C
09.08.2012 16:11 19,9 C 56 % 1024,3 hPa 0,0 l/m 11,9 km/h (2 Bft) W-NW 292 10,9 C 19,9 C
09.08.2012 16:16 20,4 C 54 % 1024,3 hPa 0,0 l/m 8,6 km/h (2 Bft) NW 315 10,8 C 20,4 C
09.08.2012 16:21 21,1 C 53 % 1024,2 hPa 0,0 l/m 15,5 km/h (3 Bft) NW 315 11,1 C 21,1 C
09.08.2012 16:26 21,3 C 50 % 1024,1 hPa 0,0 l/m 16,9 km/h (3 Bft) N-NO 22 10,4 C 21,3 C
09.08.2012 16:31 21,4 C 51 % 1024,0 hPa 0,0 l/m 12,6 km/h (3 Bft) N 360 10,8 C 21,4 C
09.08.2012 16:36 21,2 C 50 % 1024,0 hPa 0,0 l/m 12,6 km/h (3 Bft) N 360 10,4 C 21,2 C
09.08.2012 16:41 20,9 C 50 % 1023,9 hPa 0,0 l/m 10,1 km/h (2 Bft) N-NO 22 10,1 C 20,9 C
09.08.2012 16:46 20,6 C 51 % 1024,0 hPa 0,0 l/m 4,7 km/h (1 Bft) W 270 10,1 C 20,6 C
09.08.2012 16:51 20,6 C 51 % 1024,2 hPa 0,0 l/m 3,6 km/h (1 Bft) N 360 10,1 C 20,6 C
09.08.2012 16:56 20,5 C 52 % 1024,1 hPa 0,0 l/m 2,2 km/h (1 Bft) N 360 10,3 C 20,5 C
09.08.2012 17:01 20,4 C 53 % 1024,1 hPa 0,0 l/m 6,5 km/h (2 Bft) W-NW 292 10,5 C 20,4 C
09.08.2012 17:06 20,4 C 54 % 1024,0 hPa 0,0 l/m 0,0 km/h (0 Bft) NW 315 10,8 C 20,4 C
09.08.2012 17:11 20,3 C 54 % 1024,1 hPa 0,0 l/m 4,0 km/h (1 Bft) N 360 10,7 C 20,3 C
09.08.2012 17:16 20,3 C 55 % 1024,1 hPa 0,0 l/m 6,1 km/h (2 Bft) N-NW 337 11,0 C 20,3 C
09.08.2012 17:21 20,2 C 53 % 1024,1 hPa 0,0 l/m 7,9 km/h (2 Bft) NW 315 10,3 C 20,2 C
09.08.2012 17:26 20,1 C 53 % 1024,1 hPa 0,0 l/m 7,6 km/h (2 Bft) N-NW 337 10,2 C 20,1 C
09.08.2012 17:31 19,9 C 54 % 1024,1 hPa 0,0 l/m 7,6 km/h (2 Bft) NW 315 10,3 C 19,9 C
09.08.2012 17:36 19,9 C 54 % 1024,1 hPa 0,0 l/m 10,8 km/h (2 Bft) N 360 10,3 C 19,9 C
09.08.2012 17:41 19,8 C 55 % 1024,0 hPa 0,0 l/m 9,4 km/h (2 Bft) N 360 10,5 C 19,8 C
09.08.2012 17:46 19,9 C 55 % 1024,0 hPa 0,0 l/m 1,4 km/h (1 Bft) W-NW 292 10,6 C 19,9 C
09.08.2012 17:51 20,4 C 54 % 1024,0 hPa 0,0 l/m 7,9 km/h (2 Bft) N-NW 337 10,8 C 20,4 C
09.08.2012 17:56 20,5 C 54 % 1024,0 hPa 0,0 l/m 3,6 km/h (1 Bft) N-NO 22 10,9 C 20,5 C
09.08.2012 18:01 20,2 C 54 % 1023,9 hPa 0,0 l/m 4,0 km/h (1 Bft) NO 45 10,6 C 20,2 C
09.08.2012 18:06 19,8 C 55 % 1024,0 hPa 0,0 l/m 6,5 km/h (2 Bft) N-NW 337 10,5 C 19,8 C
09.08.2012 18:11 19,5 C 57 % 1024,0 hPa 0,0 l/m 7,2 km/h (2 Bft) N-NW 337 10,8 C 19,5 C
09.08.2012 18:16 19,2 C 58 % 1024,1 hPa 0,0 l/m 10,4 km/h (2 Bft) N 360 10,7 C 19,2 C
09.08.2012 18:21 18,9 C 59 % 1024,1 hPa 0,0 l/m 7,6 km/h (2 Bft) N-NO 22 10,7 C 18,9 C
09.08.2012 18:26 18,5 C 60 % 1024,2 hPa 0,0 l/m 18,4 km/h (3 Bft) N-NW 337 10,6 C 18,5 C
09.08.2012 18:31 18,4 C 60 % 1024,1 hPa 0,0 l/m 4,0 km/h (1 Bft) N-NO 22 10,5 C 18,4 C
09.08.2012 18:36 18,4 C 61 % 1024,1 hPa 0,0 l/m 1,8 km/h (1 Bft) N-NO 22 10,7 C 18,4 C
09.08.2012 18:41 18,4 C 62 % 1024,1 hPa 0,0 l/m 5,8 km/h (2 Bft) N-NW 337 11,0 C 18,4 C
09.08.2012 18:46 18,5 C 62 % 1024,1 hPa 0,0 l/m 3,6 km/h (1 Bft) NW 315 11,1 C 18,5 C
09.08.2012 18:51 18,6 C 62 % 1024,1 hPa 0,0 l/m 11,5 km/h (2 Bft) N 360 11,2 C 18,6 C
09.08.2012 18:56 18,9 C 62 % 1024,1 hPa 0,0 l/m 11,2 km/h (2 Bft) N-NW 337 11,5 C 18,9 C
09.08.2012 19:01 18,9 C 61 % 1024,1 hPa 0,0 l/m 7,6 km/h (2 Bft) NW 315 11,2 C 18,9 C
09.08.2012 19:06 19,1 C 61 % 1024,1 hPa 0,0 l/m 4,7 km/h (1 Bft) W-NW 292 11,4 C 19,1 C
09.08.2012 19:11 19,1 C 61 % 1024,1 hPa 0,0 l/m 0,0 km/h (0 Bft) N-NO 22 11,4 C 19,1 C
09.08.2012 19:16 19,1 C 61 % 1024,1 hPa 0,0 l/m 2,9 km/h (1 Bft) N-NW 337 11,4 C 19,1 C
09.08.2012 19:21 18,9 C 59 % 1024,1 hPa 0,0 l/m 1,4 km/h (1 Bft) N-NW 337 10,7 C 18,9 C
09.08.2012 19:26 18,9 C 60 % 1024,2 hPa 0,0 l/m 2,5 km/h (1 Bft) N-NO 22 11,0 C 18,9 C
09.08.2012 19:31 18,8 C 60 % 1024,2 hPa 0,0 l/m 2,9 km/h (1 Bft) N-NO 22 10,9 C 18,8 C
09.08.2012 19:36 18,6 C 60 % 1024,2 hPa 0,0 l/m 7,6 km/h (2 Bft) N 360 10,7 C 18,6 C
09.08.2012 19:41 18,5 C 61 % 1024,3 hPa 0,0 l/m 4,0 km/h (1 Bft) N-NO 22 10,8 C 18,5 C
09.08.2012 19:46 18,4 C 61 % 1024,2 hPa 0,0 l/m 0,0 km/h (0 Bft) N-NW 337 10,7 C 18,4 C
09.08.2012 19:51 18,4 C 62 % 1024,2 hPa 0,0 l/m 4,7 km/h (1 Bft) N-NW 337 11,0 C 18,4 C
09.08.2012 19:56 18,3 C 62 % 1024,2 hPa 0,0 l/m 2,2 km/h (1 Bft) N 360 10,9 C 18,3 C
09.08.2012 20:01 18,2 C 63 % 1024,3 hPa 0,0 l/m 2,9 km/h (1 Bft) N 360 11,0 C 18,2 C
09.08.2012 20:06 18,1 C 63 % 1024,3 hPa 0,0 l/m 0,0 km/h (0 Bft) N 360 10,9 C 18,1 C
09.08.2012 20:11 17,9 C 63 % 1024,2 hPa 0,0 l/m 3,2 km/h (1 Bft) N-NO 22 10,8 C 17,9 C
09.08.2012 20:16 17,8 C 64 % 1024,3 hPa 0,0 l/m 2,9 km/h (1 Bft) N-NO 22 10,9 C 17,8 C
09.08.2012 20:21 17,6 C 64 % 1024,3 hPa 0,0 l/m 1,4 km/h (1 Bft) N-NO 22 10,7 C 17,6 C
09.08.2012 20:26 17,4 C 64 % 1024,4 hPa 0,0 l/m 0,0 km/h (0 Bft) NW 315 10,5 C 17,4 C
09.08.2012 20:31 17,4 C 64 % 1024,4 hPa 0,0 l/m 4,3 km/h (1 Bft) NW 315 10,5 C 17,4 C
09.08.2012 20:36 17,3 C 65 % 1024,4 hPa 0,0 l/m 2,5 km/h (1 Bft) N-NW 337 10,7 C 17,3 C
09.08.2012 20:41 17,3 C 66 % 1024,5 hPa 0,0 l/m 2,5 km/h (1 Bft) NW 315 10,9 C 17,3 C
09.08.2012 20:46 17,2 C 66 % 1024,4 hPa 0,0 l/m 0,0 km/h (0 Bft) N 360 10,8 C 17,2 C
09.08.2012 20:51 17,1 C 66 % 1024,4 hPa 0,0 l/m 1,4 km/h (1 Bft) W-NW 292 10,7 C 17,1 C
09.08.2012 20:56 17,0 C 67 % 1024,4 hPa 0,0 l/m 0,0 km/h (0 Bft) W-NW 292 10,8 C 17,0 C
09.08.2012 21:01 16,9 C 67 % 1024,4 hPa 0,0 l/m 1,4 km/h (1 Bft) W-NW 292 10,7 C 16,9 C
09.08.2012 21:06 16,8 C 68 % 1024,4 hPa 0,0 l/m 1,4 km/h (1 Bft) W-NW 292 10,9 C 16,8 C
09.08.2012 21:11 16,7 C 68 % 1024,5 hPa 0,0 l/m 1,4 km/h (1 Bft) W-NW 292 10,8 C 16,7 C
09.08.2012 21:16 16,6 C 68 % 1024,4 hPa 0,0 l/m 0,0 km/h (0 Bft) W-NW 292 10,7 C 16,6 C
09.08.2012 21:21 16,5 C 68 % 1024,5 hPa 0,0 l/m 0,0 km/h (0 Bft) W-NW 292 10,6 C 16,5 C
09.08.2012 21:26 16,4 C 69 % 1024,5 hPa 0,0 l/m 0,0 km/h (0 Bft) NW 315 10,7 C 16,4 C
09.08.2012 21:31 16,3 C 69 % 1024,6 hPa 0,0 l/m 0,0 km/h (0 Bft) NW 315 10,6 C 16,3 C
09.08.2012 21:36 16,1 C 70 % 1024,6 hPa 0,0 l/m 2,2 km/h (1 Bft) NW 315 10,6 C 16,1 C
09.08.2012 21:41 16,1 C 70 % 1024,7 hPa 0,0 l/m 2,5 km/h (1 Bft) NW 315 10,6 C 16,1 C
09.08.2012 21:46 15,9 C 70 % 1024,7 hPa 0,0 l/m 1,1 km/h (1 Bft) W 270 10,4 C 15,9 C
09.08.2012 21:51 15,8 C 70 % 1024,7 hPa 0,0 l/m 1,4 km/h (1 Bft) W-NW 292 10,3 C 15,8 C
09.08.2012 21:56 15,8 C 71 % 1024,8 hPa 0,0 l/m 2,5 km/h (1 Bft) W-NW 292 10,6 C 15,8 C
09.08.2012 22:01 15,6 C 71 % 1024,8 hPa 0,0 l/m 4,0 km/h (1 Bft) W-NW 292 10,4 C 15,6 C
09.08.2012 22:06 15,6 C 72 % 1024,8 hPa 0,0 l/m 2,2 km/h (1 Bft) NW 315 10,6 C 15,6 C
09.08.2012 22:11 15,6 C 72 % 1024,9 hPa 0,0 l/m 2,9 km/h (1 Bft) NW 315 10,6 C 15,6 C
09.08.2012 22:16 15,6 C 73 % 1024,9 hPa 0,0 l/m 3,2 km/h (1 Bft) NW 315 10,8 C 15,6 C
09.08.2012 22:21 15,6 C 73 % 1024,9 hPa 0,0 l/m 2,5 km/h (1 Bft) N-NW 337 10,8 C 15,6 C
09.08.2012 22:26 15,6 C 73 % 1025,0 hPa 0,0 l/m 0,0 km/h (0 Bft) NW 315 10,8 C 15,6 C
09.08.2012 22:31 15,6 C 73 % 1025,0 hPa 0,0 l/m 0,0 km/h (0 Bft) N-NW 337 10,8 C 15,6 C
09.08.2012 22:36 15,6 C 73 % 1025,1 hPa 0,0 l/m 2,5 km/h (1 Bft) N-NW 337 10,8 C 15,6 C
09.08.2012 22:41 15,6 C 73 % 1025,2 hPa 0,0 l/m 2,9 km/h (1 Bft) NW 315 10,8 C 15,6 C
09.08.2012 22:46 15,5 C 73 % 1025,1 hPa 0,0 l/m 4,3 km/h (1 Bft) NW 315 10,7 C 15,5 C
09.08.2012 22:51 15,5 C 74 % 1025,2 hPa 0,0 l/m 4,7 km/h (1 Bft) W 270 10,9 C 15,5 C
09.08.2012 22:56 15,4 C 74 % 1025,2 hPa 0,0 l/m 3,2 km/h (1 Bft) W-NW 292 10,8 C 15,4 C
09.08.2012 23:01 15,4 C 74 % 1025,2 hPa 0,0 l/m 0,0 km/h (0 Bft) W-NW 292 10,8 C 15,4 C
09.08.2012 23:06 15,3 C 74 % 1025,1 hPa 0,0 l/m 4,7 km/h (1 Bft) W 270 10,7 C 15,3 C
09.08.2012 23:11 15,3 C 74 % 1025,2 hPa 0,0 l/m 0,0 km/h (0 Bft) W 270 10,7 C 15,3 C
09.08.2012 23:16 15,2 C 75 % 1025,2 hPa 0,0 l/m 4,3 km/h (1 Bft) W-NW 292 10,8 C 15,2 C
09.08.2012 23:21 15,0 C 75 % 1025,3 hPa 0,0 l/m 7,6 km/h (2 Bft) W-NW 292 10,6 C 15,0 C
09.08.2012 23:26 14,9 C 75 % 1025,2 hPa 0,0 l/m 4,0 km/h (1 Bft) W-NW 292 10,5 C 14,9 C
09.08.2012 23:31 14,9 C 75 % 1025,2 hPa 0,0 l/m 0,0 km/h (0 Bft) W-NW 292 10,5 C 14,9 C
09.08.2012 23:36 14,9 C 75 % 1025,2 hPa 0,0 l/m 3,6 km/h (1 Bft) NW 315 10,5 C 14,9 C
09.08.2012 23:41 14,8 C 75 % 1025,4 hPa 0,0 l/m 5,0 km/h (1 Bft) N 360 10,4 C 14,8 C
09.08.2012 23:46 14,6 C 76 % 1025,3 hPa 0,0 l/m 5,8 km/h (2 Bft) NW 315 10,4 C 14,6 C
09.08.2012 23:51 14,6 C 76 % 1025,4 hPa 0,0 l/m 1,8 km/h (1 Bft) W-NW 292 10,4 C 14,6 C
09.08.2012 23:56 14,5 C 76 % 1025,3 hPa 0,0 l/m 4,0 km/h (1 Bft) W-NW 292 10,3 C 14,5 C
_ Min-Zeit 05:21 16:26 02:16 - 00:46 - - 16:41 05:21
Minimum _ 13,5 C 50 % 1022,8 hPa - 0,0 km/h (0 Bft) - - 10,1 C 13,5 C
_ Max-Zeit 13:16 06:31 23:41 00:01 18:26 - - 11:06 13:16
Maximum _ 21,4 C 89 % 1025,4 hPa 0,0 l/m 18,4 km/h
N-NW (3 Bft)
- - 13,4 C 21,4 C
Durchschnitt _ 16,7 C 73 % 1024,1 hPa #0,0 l/m 3,9 km/h (1 Bft) W-NW - 11,6 C 16,7 C
(c) by David Heller